createdAt,value
2019-03-13T00:04:49.906Z,4.50
2019-03-13T00:07:18.355Z,5.13
2019-03-13T00:09:47.025Z,5.00
2019-03-13T00:12:15.498Z,4.60
2019-03-13T00:14:43.874Z,5.27
2019-03-13T00:17:12.302Z,3.97
2019-03-13T00:19:40.750Z,3.43
2019-03-13T00:22:49.282Z,2.90
2019-03-13T00:25:17.670Z,3.60
2019-03-13T00:27:46.046Z,3.10
2019-03-13T00:30:54.353Z,3.10
2019-03-13T00:33:23.028Z,3.27
2019-03-13T00:43:36.201Z,3.17
2019-03-13T00:46:04.642Z,2.87
2019-03-13T00:48:33.266Z,3.10
2019-03-13T00:51:21.314Z,2.97
2019-03-13T00:53:49.680Z,2.73
2019-03-13T00:56:18.059Z,2.87
2019-03-13T00:58:46.451Z,3.03
2019-03-13T01:01:33.937Z,2.67
2019-03-13T01:09:17.434Z,2.80
2019-03-13T01:11:45.820Z,2.90
2019-03-13T01:14:14.191Z,3.13
2019-03-13T01:16:42.881Z,2.60
2019-03-13T01:19:11.269Z,2.73
2019-03-13T01:21:39.952Z,2.70
2019-03-13T01:24:08.631Z,3.27
2019-03-13T01:26:37.015Z,2.97
2019-03-13T01:29:17.730Z,3.05
2019-03-13T01:32:05.229Z,3.07
2019-03-13T01:34:52.719Z,3.10
2019-03-13T01:37:21.182Z,3.07
2019-03-13T01:39:49.557Z,3.00
2019-03-13T01:42:17.996Z,3.23
2019-03-13T01:44:46.653Z,3.10
2019-03-13T01:47:15.026Z,3.00
2019-03-13T01:49:43.716Z,3.27
2019-03-13T01:52:12.100Z,3.33
2019-03-13T01:54:40.486Z,3.45
2019-03-13T01:57:09.162Z,3.27
2019-03-13T01:59:37.532Z,3.20
2019-03-13T02:02:06.229Z,3.30
2019-03-13T02:04:34.915Z,3.52
2019-03-13T02:07:03.293Z,3.70
2019-03-13T02:09:31.718Z,3.33
2019-03-13T02:12:00.081Z,3.77
2019-03-13T02:14:28.836Z,3.65
2019-03-13T02:16:57.520Z,3.40
2019-03-13T02:19:25.911Z,3.40
2019-03-13T02:21:54.291Z,3.50
2019-03-13T02:24:22.758Z,3.72
2019-03-13T02:26:51.445Z,3.42
2019-03-13T02:29:19.844Z,3.70
2019-03-13T02:31:48.462Z,3.58
2019-03-13T02:34:36.456Z,3.37
2019-03-13T02:37:04.849Z,3.90
2019-03-13T02:39:33.514Z,3.67
2019-03-13T02:42:01.916Z,3.05
2019-03-13T02:44:30.298Z,3.40
2019-03-13T02:46:58.684Z,3.95
2019-03-13T02:49:27.087Z,3.55
2019-03-13T02:51:55.718Z,3.80
2019-03-13T02:54:24.415Z,3.98
2019-03-13T02:56:53.043Z,3.65
2019-03-13T02:59:21.673Z,3.80
2019-03-13T03:04:25.596Z,3.60
2019-03-13T03:06:54.187Z,4.53
2019-03-13T03:09:22.589Z,3.70
2019-03-13T03:11:50.962Z,3.10
2019-03-13T03:14:19.631Z,3.77
2019-03-13T03:16:48.042Z,3.65
2019-03-13T03:19:16.413Z,3.25
2019-03-13T03:21:44.792Z,3.80
2019-03-13T03:24:13.189Z,3.72
2019-03-13T03:26:41.573Z,4.17
2019-03-13T03:29:09.972Z,4.00
2019-03-13T03:31:38.770Z,3.90
2019-03-13T03:34:07.150Z,3.98
2019-03-13T03:36:35.549Z,3.17
2019-03-13T03:39:44.090Z,3.70
2019-03-13T03:42:12.760Z,3.47
2019-03-13T03:44:41.439Z,3.90
2019-03-13T03:47:10.124Z,4.55
2019-03-13T03:49:38.521Z,3.80
2019-03-13T03:52:06.907Z,3.58
2019-03-13T03:54:35.567Z,3.87
2019-03-13T03:57:04.196Z,3.87
2019-03-13T03:59:32.646Z,3.92
2019-03-13T04:02:01.312Z,4.03
2019-03-13T04:04:30.001Z,4.00
2019-03-13T04:06:58.789Z,3.92
2019-03-13T04:09:27.187Z,3.60
2019-03-13T04:11:55.565Z,4.05
2019-03-13T04:14:24.182Z,3.60
2019-03-13T04:16:52.826Z,4.23
2019-03-13T04:19:21.504Z,4.05
2019-03-13T04:21:49.908Z,4.10
2019-03-13T04:24:18.289Z,4.42
2019-03-13T04:26:46.662Z,3.87
2019-03-13T04:29:15.450Z,4.47
2019-03-13T04:31:44.050Z,4.55
2019-03-13T04:34:12.435Z,4.33
2019-03-13T04:36:41.066Z,4.20
2019-03-13T04:39:09.769Z,4.15
2019-03-13T04:41:38.402Z,4.43
2019-03-13T04:44:06.779Z,3.90
2019-03-13T04:46:35.160Z,3.90
2019-03-13T04:49:03.891Z,4.12
2019-03-13T04:51:32.577Z,4.30
2019-03-13T04:54:00.971Z,4.30
2019-03-13T04:56:29.643Z,4.12
2019-03-13T04:58:58.257Z,3.87
2019-03-13T05:01:26.648Z,4.60
2019-03-13T05:03:55.027Z,4.27
2019-03-13T05:06:23.409Z,4.55
2019-03-13T05:09:31.717Z,4.00
2019-03-13T05:12:00.100Z,4.10
2019-03-13T05:14:28.478Z,4.77
2019-03-13T05:16:57.116Z,4.10
2019-03-13T05:19:25.811Z,3.70
2019-03-13T05:21:54.211Z,4.28
2019-03-13T05:24:22.870Z,4.08
2019-03-13T05:26:51.658Z,4.60
2019-03-13T05:29:20.287Z,4.20
2019-03-13T05:31:48.673Z,4.58
2019-03-13T05:34:17.306Z,4.20
2019-03-13T05:36:45.995Z,3.98
2019-03-13T05:39:14.374Z,3.77
2019-03-13T05:41:43.056Z,3.75
2019-03-13T05:44:11.444Z,3.58
2019-03-13T05:46:39.821Z,4.22
2019-03-13T05:49:08.220Z,4.33
2019-03-13T05:51:36.881Z,4.55
2019-03-13T05:54:05.772Z,3.92
2019-03-13T05:56:34.405Z,4.03
2019-03-13T05:59:02.785Z,4.60
2019-03-13T06:01:31.201Z,3.85
2019-03-13T06:03:59.578Z,5.03
2019-03-13T06:06:28.281Z,4.10
2019-03-13T06:08:57.008Z,3.90
2019-03-13T06:11:25.650Z,4.33
2019-03-13T06:13:54.033Z,3.70
2019-03-13T06:16:22.442Z,3.72
2019-03-13T06:18:52.918Z,3.95
2019-03-13T06:21:40.280Z,4.15
2019-03-13T06:24:08.664Z,3.62
2019-03-13T06:26:37.338Z,3.85
2019-03-13T06:29:06.009Z,4.17
2019-03-13T06:31:34.700Z,3.87
2019-03-13T06:34:22.433Z,3.50
2019-03-13T06:36:51.119Z,3.65
2019-03-13T06:39:19.816Z,3.62
2019-03-13T06:41:48.332Z,3.67
2019-03-13T06:44:16.649Z,4.15
2019-03-13T06:46:45.352Z,3.58
2019-03-13T06:49:13.977Z,3.50
2019-03-13T06:51:42.364Z,3.90
2019-03-13T06:54:10.766Z,3.80
2019-03-13T06:56:39.492Z,3.90
2019-03-13T07:04:51.410Z,5.28
2019-03-13T07:07:39.169Z,4.37
2019-03-13T07:10:47.480Z,3.72
2019-03-13T07:21:35.004Z,4.33
2019-03-13T07:24:41.854Z,5.47
2019-03-13T07:27:29.593Z,4.15
2019-03-13T07:30:17.371Z,3.65
2019-03-13T07:33:04.854Z,4.00
2019-03-13T07:35:52.603Z,4.12
2019-03-13T07:44:04.838Z,4.53
2019-03-13T07:49:41.654Z,3.57
2019-03-13T07:52:32.551Z,3.40
2019-03-13T07:57:54.221Z,3.40
2019-03-13T08:00:41.719Z,3.95
2019-03-13T08:06:04.907Z,3.83
2019-03-13T08:11:44.044Z,3.80
2019-03-13T08:14:30.933Z,3.70
2019-03-13T08:17:18.438Z,4.00
2019-03-13T08:20:05.928Z,3.63
2019-03-13T08:25:33.096Z,4.03
2019-03-13T08:28:20.612Z,4.20
2019-03-13T08:31:08.366Z,3.40
2019-03-13T08:34:16.902Z,3.60
2019-03-13T08:37:04.664Z,3.40
2019-03-13T08:39:52.401Z,3.70
2019-03-13T08:45:15.286Z,3.67
2019-03-13T08:48:02.776Z,3.83
2019-03-13T08:50:50.277Z,3.33
2019-03-13T08:53:38.014Z,3.22
2019-03-13T08:56:25.660Z,3.70
2019-03-13T08:59:13.146Z,3.83
2019-03-13T09:02:00.888Z,3.30
2019-03-13T09:04:48.390Z,3.80
2019-03-13T09:10:51.627Z,3.85
2019-03-13T09:16:28.280Z,3.60
2019-03-13T09:19:15.767Z,2.97
2019-03-13T09:22:03.513Z,3.20
2019-03-13T09:27:59.429Z,3.53
2019-03-13T09:30:46.917Z,3.30
2019-03-13T09:33:34.421Z,3.43
2019-03-13T09:36:22.169Z,4.00
2019-03-13T09:41:45.420Z,3.40
2019-03-13T09:44:32.919Z,4.00
2019-03-13T09:47:20.427Z,3.70
2019-03-13T09:52:57.113Z,3.27
2019-03-13T09:58:33.925Z,4.83
2019-03-13T10:06:46.558Z,3.00
2019-03-13T10:09:34.293Z,3.90
2019-03-13T10:14:57.496Z,3.60
2019-03-13T10:17:45.234Z,3.80
2019-03-13T10:20:32.865Z,3.53
2019-03-13T10:23:20.601Z,3.63
2019-03-13T10:29:02.982Z,3.57
2019-03-13T10:31:50.476Z,3.93
2019-03-13T10:34:38.225Z,3.53
2019-03-13T10:42:54.148Z,3.70
2019-03-13T10:45:41.880Z,3.27
2019-03-13T10:48:29.390Z,3.60
2019-03-13T10:54:06.202Z,3.43
2019-03-13T10:56:53.690Z,3.33
2019-03-13T11:02:40.232Z,3.93
2019-03-13T11:05:48.762Z,3.97
2019-03-13T11:08:36.276Z,3.70
2019-03-13T11:14:16.004Z,3.73
2019-03-13T11:22:50.169Z,3.50
2019-03-13T11:25:37.893Z,3.20
2019-03-13T11:28:25.401Z,3.97
2019-03-13T11:31:13.134Z,3.93
2019-03-13T11:34:00.645Z,3.63
2019-03-13T11:36:48.370Z,3.50
2019-03-13T11:39:36.120Z,3.77
2019-03-13T11:45:13.008Z,4.07
2019-03-13T11:48:00.495Z,4.23
2019-03-13T11:50:48.069Z,3.50
2019-03-13T11:53:35.557Z,3.60
2019-03-13T11:56:23.308Z,3.70
2019-03-13T11:59:10.875Z,3.90
2019-03-13T12:01:58.378Z,4.07
2019-03-13T12:04:46.109Z,4.60
2019-03-13T12:07:33.613Z,3.73
2019-03-13T12:10:21.353Z,4.60
2019-03-13T12:13:10.437Z,3.70
2019-03-13T12:15:58.312Z,3.80
2019-03-13T12:18:45.821Z,4.03
2019-03-13T12:24:22.629Z,3.50
2019-03-13T12:27:29.463Z,4.90
2019-03-13T12:33:12.086Z,4.20
2019-03-13T12:35:59.595Z,4.40
2019-03-13T12:38:47.088Z,3.57
2019-03-13T12:41:34.598Z,3.37
2019-03-13T12:47:11.176Z,4.03
2019-03-13T12:52:47.766Z,4.13
2019-03-13T12:55:35.489Z,3.80
2019-03-13T13:01:17.960Z,4.07
2019-03-13T13:04:05.506Z,4.00
2019-03-13T13:09:28.797Z,3.50
2019-03-13T13:12:16.522Z,3.93
2019-03-13T13:15:04.025Z,3.60
2019-03-13T13:17:51.748Z,4.03
2019-03-13T13:20:20.402Z,3.37
2019-03-13T13:22:48.830Z,3.60
2019-03-13T13:25:17.468Z,3.97
2019-03-13T13:27:45.857Z,4.10
2019-03-13T13:30:54.466Z,3.80
2019-03-13T13:33:22.794Z,4.20
2019-03-13T13:35:51.240Z,4.17
2019-03-13T13:38:19.617Z,3.87
2019-03-13T13:40:48.133Z,3.90
2019-03-13T13:43:16.772Z,3.30
2019-03-13T13:46:25.306Z,4.10
2019-03-13T13:48:53.976Z,3.80
2019-03-13T13:51:22.351Z,4.10
2019-03-13T13:53:50.808Z,4.27
2019-03-13T13:56:19.418Z,4.03
2019-03-13T13:58:47.812Z,3.80
2019-03-13T14:01:16.585Z,3.60
2019-03-13T14:03:45.269Z,4.07
2019-03-13T14:06:13.659Z,3.40
2019-03-13T14:08:42.034Z,3.87
2019-03-13T14:11:10.407Z,3.90
2019-03-13T14:13:38.842Z,3.73
2019-03-13T14:16:26.950Z,3.63
2019-03-13T14:18:55.613Z,4.40
2019-03-13T14:21:23.995Z,4.53
2019-03-13T14:23:52.380Z,4.93
2019-03-13T14:26:21.057Z,4.30
2019-03-13T14:28:49.743Z,4.20
2019-03-13T14:31:18.430Z,4.17
2019-03-13T14:33:47.064Z,3.90
2019-03-13T14:36:15.700Z,4.07
2019-03-13T14:38:44.090Z,3.43
2019-03-13T14:41:12.763Z,4.00
2019-03-13T14:43:41.388Z,4.67
2019-03-13T14:46:10.043Z,4.97
2019-03-13T14:48:38.721Z,3.63
2019-03-13T14:51:07.085Z,4.03
2019-03-13T14:53:35.469Z,3.50
2019-03-13T14:56:03.846Z,4.37
2019-03-13T14:58:32.544Z,3.87
2019-03-13T15:01:08.497Z,3.63
2019-03-13T15:03:36.902Z,4.03
2019-03-13T15:06:05.505Z,3.90
2019-03-13T15:08:33.933Z,3.90
2019-03-13T15:11:02.401Z,3.87
2019-03-13T15:13:31.106Z,4.23
2019-03-13T15:15:59.575Z,3.93
2019-03-13T15:18:28.272Z,4.23
2019-03-13T15:20:56.645Z,3.87
2019-03-13T15:23:25.337Z,4.50
2019-03-13T15:25:54.026Z,4.53
2019-03-13T15:28:22.727Z,4.80
2019-03-13T15:30:51.101Z,4.93
2019-03-13T15:33:19.774Z,3.90
2019-03-13T15:35:48.471Z,4.10
2019-03-13T15:38:17.144Z,4.20
2019-03-13T15:41:05.257Z,3.70
2019-03-13T15:43:33.873Z,4.30
2019-03-13T15:46:02.558Z,4.30
2019-03-13T15:48:31.247Z,3.97
2019-03-13T15:50:59.616Z,4.50
2019-03-13T15:53:28.309Z,4.20
2019-03-13T15:55:56.713Z,4.73
2019-03-13T15:58:25.392Z,4.13
2019-03-13T16:00:54.073Z,3.70
2019-03-13T16:03:22.464Z,4.10
2019-03-13T16:05:50.883Z,4.27
2019-03-13T16:08:19.369Z,5.33
2019-03-13T16:10:48.086Z,4.07
2019-03-13T16:13:16.457Z,4.20
2019-03-13T16:15:46.216Z,4.23
2019-03-13T16:18:15.114Z,4.60
2019-03-13T16:20:43.739Z,4.47
2019-03-13T16:23:12.453Z,4.40
2019-03-13T16:25:40.857Z,4.70
2019-03-13T16:28:09.231Z,4.50
2019-03-13T16:30:56.739Z,8.60
2019-03-13T16:33:25.110Z,4.60
2019-03-13T16:35:53.480Z,4.30
2019-03-13T16:38:22.165Z,4.80
2019-03-13T16:40:50.537Z,4.70
2019-03-13T16:43:19.237Z,4.97
2019-03-13T16:45:47.630Z,6.57
2019-03-13T16:48:16.397Z,5.70
2019-03-13T16:50:45.084Z,4.63
2019-03-13T16:53:13.475Z,4.00
2019-03-13T16:55:41.849Z,4.33
2019-03-13T16:58:10.530Z,4.70
2019-03-13T17:00:39.318Z,4.03
2019-03-13T17:03:08.002Z,4.50
2019-03-13T17:05:36.790Z,4.60
2019-03-13T17:08:05.318Z,4.63
2019-03-13T17:10:33.692Z,4.00
2019-03-13T17:13:05.371Z,4.87
2019-03-13T17:15:32.181Z,4.50
2019-03-13T17:18:00.556Z,3.83
2019-03-13T17:20:33.436Z,5.40
2019-03-13T17:23:01.887Z,4.80
2019-03-13T17:25:30.327Z,4.80
2019-03-13T17:28:17.991Z,5.67
2019-03-13T17:30:46.394Z,5.07
2019-03-13T17:33:15.085Z,5.33
2019-03-13T17:35:43.476Z,5.10
2019-03-13T17:38:11.866Z,4.60
2019-03-13T17:40:40.315Z,4.83
2019-03-13T17:43:08.767Z,4.73
2019-03-13T17:45:37.157Z,5.20
2019-03-13T17:48:45.707Z,5.03
2019-03-13T17:51:14.399Z,5.40
2019-03-13T17:54:02.190Z,4.60
2019-03-13T17:56:30.581Z,4.40
2019-03-13T17:58:58.957Z,4.50
2019-03-13T18:01:27.342Z,4.50
2019-03-13T18:04:15.056Z,5.23
2019-03-13T18:06:43.471Z,4.50
2019-03-13T18:09:11.844Z,4.60
2019-03-13T18:11:40.498Z,4.27
2019-03-13T18:14:09.181Z,4.70
2019-03-13T18:16:37.886Z,4.50
2019-03-13T18:19:06.557Z,4.80
2019-03-13T18:21:35.236Z,5.13
2019-03-13T18:24:03.679Z,4.10
2019-03-13T18:26:32.410Z,4.62
2019-03-13T18:29:01.095Z,5.20
2019-03-13T18:31:29.473Z,5.67
2019-03-13T18:34:17.508Z,5.03
2019-03-13T18:37:05.225Z,4.60
2019-03-13T18:39:33.861Z,4.37
2019-03-13T18:42:02.511Z,4.43
2019-03-13T18:44:30.886Z,4.40
2019-03-13T18:46:59.519Z,4.47
2019-03-13T18:49:27.897Z,4.93
2019-03-13T18:51:56.288Z,5.30
2019-03-13T18:54:24.665Z,4.73
2019-03-13T18:56:53.161Z,5.17
2019-03-13T18:59:21.881Z,4.43
2019-03-13T19:01:50.565Z,4.67
2019-03-13T19:04:38.612Z,4.50
2019-03-13T19:07:26.326Z,5.17
2019-03-13T19:09:54.739Z,5.23
2019-03-13T19:12:23.155Z,4.67
2019-03-13T19:14:51.885Z,4.50
2019-03-13T19:17:20.290Z,5.22
2019-03-13T19:19:48.916Z,4.50
2019-03-13T19:22:17.304Z,4.97
2019-03-13T19:24:45.710Z,4.60
2019-03-13T19:27:14.151Z,5.60
2019-03-13T19:29:42.915Z,4.92
2019-03-13T19:32:11.679Z,5.00
2019-03-13T19:34:40.398Z,5.90
2019-03-13T19:37:09.366Z,5.28
2019-03-13T19:39:38.912Z,4.50
2019-03-13T19:42:07.438Z,4.80
2019-03-13T19:44:36.218Z,4.85
2019-03-13T19:47:04.622Z,4.45
2019-03-13T19:49:33.040Z,5.55
2019-03-13T19:52:01.430Z,4.72
2019-03-13T19:54:30.082Z,4.83
2019-03-13T19:56:58.738Z,4.40
2019-03-13T19:59:27.118Z,4.62
2019-03-13T20:01:55.808Z,4.75
2019-03-13T20:04:24.188Z,5.20
2019-03-13T20:06:52.581Z,5.03
2019-03-13T20:09:20.986Z,4.72
2019-03-13T20:11:49.392Z,4.50
2019-03-13T20:14:17.780Z,5.00
2019-03-13T20:16:46.788Z,4.90
2019-03-13T20:19:16.583Z,4.80
2019-03-13T20:21:44.976Z,4.70
2019-03-13T20:24:13.659Z,4.60
2019-03-13T20:26:42.055Z,5.95
2019-03-13T20:29:10.441Z,5.42
2019-03-13T20:31:38.846Z,5.15
2019-03-13T20:34:26.835Z,4.87
2019-03-13T20:36:58.474Z,5.30
2019-03-13T20:39:25.350Z,5.00
2019-03-13T20:41:54.441Z,4.67
2019-03-13T20:44:24.076Z,5.42
2019-03-13T20:46:52.455Z,4.80
2019-03-13T20:49:20.911Z,4.45
2019-03-13T20:52:08.890Z,5.67
2019-03-13T20:54:37.277Z,5.60
2019-03-13T20:57:05.718Z,5.35
2019-03-13T20:59:34.220Z,4.85
2019-03-13T21:02:02.611Z,5.87
2019-03-13T21:04:31.039Z,6.00
2019-03-13T21:06:59.830Z,4.83
2019-03-13T21:09:28.505Z,4.70
2019-03-13T21:11:56.896Z,6.10
2019-03-13T21:14:25.570Z,4.60
2019-03-13T21:16:54.006Z,5.87
2019-03-13T21:19:22.633Z,5.20
2019-03-13T21:21:51.033Z,4.65
2019-03-13T21:24:19.419Z,4.87
2019-03-13T21:26:49.384Z,5.85
2019-03-13T21:29:18.211Z,5.85
2019-03-13T21:31:46.886Z,5.20
2019-03-13T21:34:15.280Z,6.05
2019-03-13T21:36:43.918Z,5.80
2019-03-13T21:39:12.765Z,5.83
2019-03-13T21:41:41.428Z,6.20
2019-03-13T21:44:09.839Z,6.20
2019-03-13T21:46:38.467Z,6.73
2019-03-13T21:49:08.235Z,6.17
2019-03-13T21:51:37.325Z,5.65
2019-03-13T21:54:06.015Z,5.97
2019-03-13T21:56:34.411Z,5.70
2019-03-13T21:59:03.162Z,4.90
2019-03-13T22:01:31.838Z,5.85
2019-03-13T22:04:00.228Z,5.42
2019-03-13T22:06:29.462Z,5.47
2019-03-13T22:08:58.990Z,6.05
2019-03-13T22:11:27.700Z,4.72
2019-03-13T22:13:56.390Z,4.50
2019-03-13T22:16:24.783Z,5.08
2019-03-13T22:18:53.554Z,4.85
2019-03-13T22:21:21.966Z,5.15
2019-03-13T22:23:50.364Z,4.85
2019-03-13T22:26:19.124Z,5.00
2019-03-13T22:28:47.555Z,4.87
2019-03-13T22:31:16.156Z,4.75
2019-03-13T22:33:44.785Z,4.33
2019-03-13T22:36:13.197Z,5.50
2019-03-13T22:38:41.591Z,5.45
2019-03-13T22:41:09.974Z,5.90
2019-03-13T22:43:38.378Z,5.03
2019-03-13T22:46:07.006Z,4.65
2019-03-13T22:48:35.637Z,5.15
2019-03-13T22:51:04.042Z,5.28
2019-03-13T22:53:32.429Z,5.67
2019-03-13T22:56:00.817Z,5.12
2019-03-13T22:58:29.343Z,4.95
2019-03-13T23:01:37.634Z,4.90
2019-03-13T23:07:19.997Z,5.30
2019-03-13T23:09:48.687Z,5.28
2019-03-13T23:12:17.130Z,5.55
2019-03-13T23:14:45.750Z,5.72
2019-03-13T23:17:14.134Z,6.28
2019-03-13T23:19:42.818Z,6.95
2019-03-13T23:22:11.221Z,5.83
2019-03-13T23:24:39.645Z,5.20
2019-03-13T23:27:08.022Z,5.62
2019-03-13T23:29:36.796Z,5.55
2019-03-13T23:32:05.131Z,6.00
2019-03-13T23:35:13.599Z,5.45
2019-03-13T23:37:41.987Z,5.67
2019-03-13T23:40:10.706Z,5.75
2019-03-13T23:42:39.386Z,4.53
2019-03-13T23:45:47.675Z,6.42
2019-03-13T23:48:16.085Z,5.45
2019-03-13T23:50:44.696Z,5.40
2019-03-13T23:53:13.349Z,5.25
2019-03-13T23:55:41.760Z,5.97
2019-03-13T23:58:11.640Z,5.28
